Overview Statistics Trail Chart Weather Telemetry Raw packets
 

This is the latest recevied weather packets stored in our database for station/object DL2GPS-3. If no packets are shown the sender has not sent any weather packets the latest 10 day(s).

<< 45 46 47 48 49 50 51 >>
Time Temp. Humidity Pressure Rain* Wind** Luminosity Snow
1788004055 22.78° C 49% 1020 hPa - - - -
1788003449 22.78° C 48% 1020 hPa - - - -
1788002845 22.22° C 49% 1020 hPa - - - -
1788002242 23.33° C 48% 1020.1 hPa - - - -
1788001636 23.33° C 48% 1020.2 hPa - - - -
1788001030 23.33° C 47% 1020.1 hPa - - - -
1788000426 23.33° C 48% 1020 hPa - - - -
1787999821 22.78° C 48% 1020.1 hPa - - - -
1787999217 22.22° C 51% 1020.2 hPa - - - -
1787998612 22.78° C 49% 1020.3 hPa - - - -
1787998007 21.67° C 53% 1020.3 hPa - - - -
1787997403 22.22° C 52% 1020.4 hPa - - - -
1787996796 22.78° C 51% 1020.3 hPa - - - -
1787996192 22.78° C 51% 1020.3 hPa - - - -
1787995587 22.78° C 51% 1020.4 hPa - - - -
1787994981 22.78° C 54% 1020.4 hPa - - - -
1787994378 21.67° C 57% 1020.4 hPa - - - -
1787993778 22.22° C 56% 1020.3 hPa - - - -
1787993167 22.78° C 54% 1020.4 hPa - - - -
1787992562 22.22° C 54% 1020.4 hPa - - - -
1787991958 22.78° C 55% 1020.3 hPa - - - -
1787991352 21.67° C 56% 1020.4 hPa - - - -
1787990749 23.33° C 53% 1020.4 hPa - - - -
1787990142 22.22° C 55% 1020.5 hPa - - - -
1787989537 22.78° C 54% 1020.4 hPa - - - -

* Rain since midnight (hover to see other rain measurements)
** Current wind speed in m/s (hover to see current wind gust speed)